Terminal Aerodrome Forecast
Issued by NWS Wilmington, OH

Current Version | Previous Version | Graphics & Text | Print | Product List | Glossary On
Versions: 1 2 3 4 5 6 7 8 9 10 11 12 13 14 15 16 17 18 19 20 21 22 23 24 25 26 27 28 29 30 31
000
FTUS41 KILN 112320
TAFCVG
TAF
KCVG 112320Z 1200/1306 19010KT P6SM BKN200
     FM120300 24010KT P6SM BKN200
     FM120700 28012G21KT P6SM VCSH BKN022
     FM120900 30015G28KT P6SM VCSH OVC014
     FM121600 30015G28KT P6SM VCSH BKN022
     FM122200 30011G20KT P6SM BKN035=

USA.gov is the U.S. government's official web portal to all federal, state and local government web resources and services.